sensor_id;sensor_type;location;lat;lon;timestamp;P1;durP1;ratioP1;P2;durP2;ratioP2
5923;SDS011;2987;50.884;14.818;2023-10-19T00:02:06;12.83;;;7.67;;
5923;SDS011;2987;50.884;14.818;2023-10-19T00:04:33;14.13;;;8.57;;
5923;SDS011;2987;50.884;14.818;2023-10-19T00:07:02;13.10;;;9.50;;
5923;SDS011;2987;50.884;14.818;2023-10-19T00:09:30;13.77;;;8.90;;
5923;SDS011;2987;50.884;14.818;2023-10-19T00:12:02;12.67;;;9.53;;
5923;SDS011;2987;50.884;14.818;2023-10-19T00:14:29;12.10;;;8.63;;
5923;SDS011;2987;50.884;14.818;2023-10-19T00:16:58;14.40;;;10.70;;
5923;SDS011;2987;50.884;14.818;2023-10-19T00:19:31;12.17;;;9.73;;
5923;SDS011;2987;50.884;14.818;2023-10-19T00:22:04;12.60;;;9.77;;
5923;SDS011;2987;50.884;14.818;2023-10-19T00:24:37;14.57;;;9.70;;
5923;SDS011;2987;50.884;14.818;2023-10-19T00:27:07;14.50;;;10.30;;
5923;SDS011;2987;50.884;14.818;2023-10-19T00:29:42;15.93;;;11.47;;
5923;SDS011;2987;50.884;14.818;2023-10-19T00:32:15;18.77;;;11.17;;
5923;SDS011;2987;50.884;14.818;2023-10-19T00:34:43;20.07;;;11.83;;
5923;SDS011;2987;50.884;14.818;2023-10-19T00:37:17;16.40;;;12.50;;
5923;SDS011;2987;50.884;14.818;2023-10-19T00:39:52;16.57;;;12.00;;
5923;SDS011;2987;50.884;14.818;2023-10-19T00:42:20;18.30;;;10.63;;
5923;SDS011;2987;50.884;14.818;2023-10-19T00:44:51;13.90;;;10.93;;
5923;SDS011;2987;50.884;14.818;2023-10-19T00:47:17;16.90;;;11.27;;
5923;SDS011;2987;50.884;14.818;2023-10-19T00:49:46;14.07;;;9.90;;
5923;SDS011;2987;50.884;14.818;2023-10-19T00:52:12;16.07;;;10.77;;
5923;SDS011;2987;50.884;14.818;2023-10-19T00:54:49;14.03;;;10.67;;
5923;SDS011;2987;50.884;14.818;2023-10-19T00:57:18;14.07;;;10.30;;
5923;SDS011;2987;50.884;14.818;2023-10-19T00:59:46;12.57;;;10.33;;
5923;SDS011;2987;50.884;14.818;2023-10-19T01:02:13;13.97;;;9.97;;
5923;SDS011;2987;50.884;14.818;2023-10-19T01:04:46;19.40;;;11.00;;
5923;SDS011;2987;50.884;14.818;2023-10-19T01:07:33;14.03;;;10.13;;
5923;SDS011;2987;50.884;14.818;2023-10-19T01:10:03;13.03;;;9.63;;
5923;SDS011;2987;50.884;14.818;2023-10-19T01:12:31;14.10;;;10.00;;
5923;SDS011;2987;50.884;14.818;2023-10-19T01:15:05;17.23;;;10.57;;
5923;SDS011;2987;50.884;14.818;2023-10-19T01:17:39;16.73;;;10.80;;
5923;SDS011;2987;50.884;14.818;2023-10-19T01:20:10;14.40;;;10.60;;
5923;SDS011;2987;50.884;14.818;2023-10-19T01:25:32;14.70;;;10.63;;
5923;SDS011;2987;50.884;14.818;2023-10-19T01:28:12;15.40;;;10.80;;
5923;SDS011;2987;50.884;14.818;2023-10-19T01:30:42;16.40;;;10.40;;
5923;SDS011;2987;50.884;14.818;2023-10-19T01:33:10;11.70;;;9.47;;
5923;SDS011;2987;50.884;14.818;2023-10-19T01:35:41;14.37;;;9.97;;
5923;SDS011;2987;50.884;14.818;2023-10-19T01:38:28;14.07;;;10.10;;
5923;SDS011;2987;50.884;14.818;2023-10-19T01:40:58;15.57;;;10.23;;
5923;SDS011;2987;50.884;14.818;2023-10-19T01:43:26;11.17;;;9.97;;
5923;SDS011;2987;50.884;14.818;2023-10-19T01:45:57;16.00;;;10.17;;
5923;SDS011;2987;50.884;14.818;2023-10-19T01:48:29;16.47;;;10.97;;
5923;SDS011;2987;50.884;14.818;2023-10-19T01:51:00;15.80;;;10.10;;
5923;SDS011;2987;50.884;14.818;2023-10-19T01:53:32;14.87;;;10.63;;
5923;SDS011;2987;50.884;14.818;2023-10-19T01:56:00;16.33;;;10.90;;
5923;SDS011;2987;50.884;14.818;2023-10-19T01:58:31;15.73;;;10.60;;
5923;SDS011;2987;50.884;14.818;2023-10-19T02:01:03;13.10;;;10.20;;
5923;SDS011;2987;50.884;14.818;2023-10-19T02:03:35;16.13;;;10.03;;
5923;SDS011;2987;50.884;14.818;2023-10-19T02:06:02;13.83;;;10.10;;
5923;SDS011;2987;50.884;14.818;2023-10-19T02:08:36;17.40;;;10.47;;
5923;SDS011;2987;50.884;14.818;2023-10-19T02:11:05;14.07;;;10.63;;
5923;SDS011;2987;50.884;14.818;2023-10-19T02:13:41;13.77;;;10.53;;
5923;SDS011;2987;50.884;14.818;2023-10-19T02:16:08;17.50;;;10.37;;
5923;SDS011;2987;50.884;14.818;2023-10-19T02:18:35;13.03;;;10.40;;
5923;SDS011;2987;50.884;14.818;2023-10-19T02:21:01;13.67;;;9.90;;
5923;SDS011;2987;50.884;14.818;2023-10-19T02:23:32;18.20;;;10.70;;
5923;SDS011;2987;50.884;14.818;2023-10-19T02:26:00;13.17;;;10.20;;
5923;SDS011;2987;50.884;14.818;2023-10-19T02:28:29;15.77;;;10.83;;
5923;SDS011;2987;50.884;14.818;2023-10-19T02:30:57;12.37;;;10.27;;
5923;SDS011;2987;50.884;14.818;2023-10-19T02:33:36;13.70;;;10.07;;
5923;SDS011;2987;50.884;14.818;2023-10-19T02:36:03;14.70;;;11.03;;
5923;SDS011;2987;50.884;14.818;2023-10-19T02:38:29;18.30;;;10.87;;
5923;SDS011;2987;50.884;14.818;2023-10-19T02:40:56;16.40;;;11.00;;
5923;SDS011;2987;50.884;14.818;2023-10-19T02:43:22;13.30;;;10.37;;
5923;SDS011;2987;50.884;14.818;2023-10-19T02:45:49;16.10;;;10.47;;
5923;SDS011;2987;50.884;14.818;2023-10-19T02:48:16;15.90;;;10.90;;
5923;SDS011;2987;50.884;14.818;2023-10-19T02:50:42;16.87;;;11.13;;
5923;SDS011;2987;50.884;14.818;2023-10-19T02:53:08;14.93;;;10.40;;
5923;SDS011;2987;50.884;14.818;2023-10-19T02:55:39;17.43;;;11.27;;
5923;SDS011;2987;50.884;14.818;2023-10-19T02:58:06;16.70;;;11.37;;
5923;SDS011;2987;50.884;14.818;2023-10-19T03:00:32;17.77;;;10.60;;
5923;SDS011;2987;50.884;14.818;2023-10-19T03:02:59;12.67;;;10.13;;
5923;SDS011;2987;50.884;14.818;2023-10-19T03:05:26;22.80;;;10.87;;
5923;SDS011;2987;50.884;14.818;2023-10-19T03:07:53;13.83;;;11.13;;
5923;SDS011;2987;50.884;14.818;2023-10-19T03:10:19;21.13;;;11.20;;
5923;SDS011;2987;50.884;14.818;2023-10-19T03:12:49;15.97;;;10.50;;
5923;SDS011;2987;50.884;14.818;2023-10-19T03:15:16;16.67;;;11.47;;
5923;SDS011;2987;50.884;14.818;2023-10-19T03:17:46;17.23;;;10.93;;
5923;SDS011;2987;50.884;14.818;2023-10-19T03:20:14;20.43;;;11.57;;
5923;SDS011;2987;50.884;14.818;2023-10-19T03:22:43;13.80;;;10.90;;
5923;SDS011;2987;50.884;14.818;2023-10-19T03:25:12;14.93;;;11.27;;
5923;SDS011;2987;50.884;14.818;2023-10-19T03:27:58;15.67;;;11.07;;
5923;SDS011;2987;50.884;14.818;2023-10-19T03:30:32;15.73;;;11.83;;
5923;SDS011;2987;50.884;14.818;2023-10-19T03:33:05;16.03;;;10.97;;
5923;SDS011;2987;50.884;14.818;2023-10-19T03:35:35;16.77;;;12.43;;
5923;SDS011;2987;50.884;14.818;2023-10-19T03:38:03;16.77;;;13.03;;
5923;SDS011;2987;50.884;14.818;2023-10-19T03:40:40;15.73;;;12.10;;
5923;SDS011;2987;50.884;14.818;2023-10-19T03:43:06;16.57;;;12.30;;
5923;SDS011;2987;50.884;14.818;2023-10-19T03:48:17;17.33;;;11.87;;
5923;SDS011;2987;50.884;14.818;2023-10-19T03:50:53;15.27;;;10.97;;
5923;SDS011;2987;50.884;14.818;2023-10-19T03:53:22;17.57;;;12.43;;
5923;SDS011;2987;50.884;14.818;2023-10-19T03:55:49;15.00;;;12.13;;
5923;SDS011;2987;50.884;14.818;2023-10-19T03:58:16;19.43;;;14.00;;
5923;SDS011;2987;50.884;14.818;2023-10-19T04:00:42;19.70;;;13.50;;
5923;SDS011;2987;50.884;14.818;2023-10-19T04:03:10;20.23;;;12.40;;
5923;SDS011;2987;50.884;14.818;2023-10-19T04:05:37;13.73;;;11.57;;
5923;SDS011;2987;50.884;14.818;2023-10-19T04:08:05;19.37;;;13.33;;
5923;SDS011;2987;50.884;14.818;2023-10-19T04:10:51;16.47;;;13.03;;
5923;SDS011;2987;50.884;14.818;2023-10-19T04:13:38;19.33;;;12.83;;
5923;SDS011;2987;50.884;14.818;2023-10-19T04:16:04;21.30;;;14.83;;
5923;SDS011;2987;50.884;14.818;2023-10-19T04:18:34;22.03;;;15.40;;
5923;SDS011;2987;50.884;14.818;2023-10-19T04:21:05;26.73;;;16.37;;
5923;SDS011;2987;50.884;14.818;2023-10-19T04:23:31;25.50;;;16.63;;
5923;SDS011;2987;50.884;14.818;2023-10-19T04:26:00;20.57;;;15.57;;
5923;SDS011;2987;50.884;14.818;2023-10-19T04:28:36;21.63;;;16.27;;
5923;SDS011;2987;50.884;14.818;2023-10-19T04:31:07;21.40;;;16.13;;
5923;SDS011;2987;50.884;14.818;2023-10-19T04:33:33;24.23;;;16.30;;
5923;SDS011;2987;50.884;14.818;2023-10-19T04:35:59;25.43;;;16.00;;
5923;SDS011;2987;50.884;14.818;2023-10-19T04:38:27;21.27;;;16.23;;
5923;SDS011;2987;50.884;14.818;2023-10-19T04:41:03;23.27;;;17.00;;
5923;SDS011;2987;50.884;14.818;2023-10-19T04:43:33;27.93;;;17.47;;
5923;SDS011;2987;50.884;14.818;2023-10-19T04:46:03;23.40;;;18.17;;
5923;SDS011;2987;50.884;14.818;2023-10-19T04:48:33;22.43;;;17.17;;
5923;SDS011;2987;50.884;14.818;2023-10-19T04:51:01;25.03;;;17.40;;
5923;SDS011;2987;50.884;14.818;2023-10-19T04:53:30;24.70;;;18.40;;
5923;SDS011;2987;50.884;14.818;2023-10-19T04:58:26;24.97;;;17.90;;
5923;SDS011;2987;50.884;14.818;2023-10-19T05:00:54;23.73;;;17.17;;
5923;SDS011;2987;50.884;14.818;2023-10-19T05:03:21;25.37;;;17.93;;
5923;SDS011;2987;50.884;14.818;2023-10-19T05:05:47;21.17;;;17.03;;
5923;SDS011;2987;50.884;14.818;2023-10-19T05:08:13;23.07;;;17.50;;
5923;SDS011;2987;50.884;14.818;2023-10-19T05:10:39;23.57;;;17.37;;
5923;SDS011;2987;50.884;14.818;2023-10-19T05:13:07;21.40;;;16.37;;
5923;SDS011;2987;50.884;14.818;2023-10-19T05:15:33;23.97;;;18.30;;
5923;SDS011;2987;50.884;14.818;2023-10-19T05:18:00;29.27;;;18.03;;
5923;SDS011;2987;50.884;14.818;2023-10-19T05:20:27;24.30;;;17.53;;
5923;SDS011;2987;50.884;14.818;2023-10-19T05:22:53;24.33;;;17.43;;
5923;SDS011;2987;50.884;14.818;2023-10-19T05:25:20;23.53;;;17.53;;
5923;SDS011;2987;50.884;14.818;2023-10-19T05:27:48;24.27;;;16.97;;
5923;SDS011;2987;50.884;14.818;2023-10-19T05:30:14;27.53;;;18.97;;
5923;SDS011;2987;50.884;14.818;2023-10-19T05:32:41;26.67;;;18.67;;
5923;SDS011;2987;50.884;14.818;2023-10-19T05:35:07;25.73;;;18.40;;
5923;SDS011;2987;50.884;14.818;2023-10-19T05:37:40;24.80;;;19.00;;
5923;SDS011;2987;50.884;14.818;2023-10-19T05:40:06;24.70;;;18.17;;
5923;SDS011;2987;50.884;14.818;2023-10-19T05:42:38;23.77;;;17.77;;
5923;SDS011;2987;50.884;14.818;2023-10-19T05:45:04;29.63;;;19.40;;
5923;SDS011;2987;50.884;14.818;2023-10-19T05:47:31;26.97;;;19.40;;
5923;SDS011;2987;50.884;14.818;2023-10-19T05:49:57;28.00;;;19.80;;
5923;SDS011;2987;50.884;14.818;2023-10-19T05:52:23;27.97;;;20.20;;
5923;SDS011;2987;50.884;14.818;2023-10-19T05:54:49;26.97;;;19.37;;
5923;SDS011;2987;50.884;14.818;2023-10-19T05:57:15;28.47;;;20.73;;
5923;SDS011;2987;50.884;14.818;2023-10-19T05:59:42;26.67;;;20.33;;
5923;SDS011;2987;50.884;14.818;2023-10-19T06:02:08;26.67;;;20.20;;
5923;SDS011;2987;50.884;14.818;2023-10-19T06:04:34;28.47;;;20.53;;
5923;SDS011;2987;50.884;14.818;2023-10-19T06:07:00;28.83;;;20.83;;
5923;SDS011;2987;50.884;14.818;2023-10-19T06:09:26;29.00;;;20.47;;
5923;SDS011;2987;50.884;14.818;2023-10-19T06:11:55;24.47;;;19.43;;
5923;SDS011;2987;50.884;14.818;2023-10-19T06:14:21;30.33;;;20.83;;
5923;SDS011;2987;50.884;14.818;2023-10-19T06:16:47;29.53;;;20.47;;
5923;SDS011;2987;50.884;14.818;2023-10-19T06:19:13;31.17;;;20.10;;
5923;SDS011;2987;50.884;14.818;2023-10-19T06:21:41;28.87;;;22.10;;
5923;SDS011;2987;50.884;14.818;2023-10-19T06:24:08;28.63;;;21.03;;
5923;SDS011;2987;50.884;14.818;2023-10-19T06:26:41;29.10;;;20.87;;
5923;SDS011;2987;50.884;14.818;2023-10-19T06:29:08;33.47;;;22.63;;
5923;SDS011;2987;50.884;14.818;2023-10-19T06:31:34;31.30;;;20.97;;
5923;SDS011;2987;50.884;14.818;2023-10-19T06:34:01;37.10;;;25.13;;
5923;SDS011;2987;50.884;14.818;2023-10-19T06:36:28;31.27;;;22.60;;
5923;SDS011;2987;50.884;14.818;2023-10-19T06:38:54;35.23;;;24.47;;
5923;SDS011;2987;50.884;14.818;2023-10-19T06:41:20;37.30;;;25.30;;
5923;SDS011;2987;50.884;14.818;2023-10-19T06:43:47;38.37;;;27.23;;
5923;SDS011;2987;50.884;14.818;2023-10-19T06:46:13;32.47;;;23.47;;
5923;SDS011;2987;50.884;14.818;2023-10-19T06:48:40;35.90;;;24.57;;
5923;SDS011;2987;50.884;14.818;2023-10-19T06:51:07;32.80;;;23.27;;
5923;SDS011;2987;50.884;14.818;2023-10-19T06:53:34;33.43;;;22.33;;
5923;SDS011;2987;50.884;14.818;2023-10-19T06:56:00;32.90;;;23.17;;
5923;SDS011;2987;50.884;14.818;2023-10-19T06:58:26;30.07;;;22.03;;
5923;SDS011;2987;50.884;14.818;2023-10-19T07:00:53;30.30;;;20.77;;
5923;SDS011;2987;50.884;14.818;2023-10-19T07:03:22;29.50;;;21.53;;
5923;SDS011;2987;50.884;14.818;2023-10-19T07:05:48;30.43;;;21.33;;
5923;SDS011;2987;50.884;14.818;2023-10-19T07:08:15;28.57;;;20.47;;
5923;SDS011;2987;50.884;14.818;2023-10-19T07:10:41;29.70;;;20.77;;
5923;SDS011;2987;50.884;14.818;2023-10-19T07:13:08;31.33;;;22.03;;
5923;SDS011;2987;50.884;14.818;2023-10-19T07:15:34;31.73;;;21.70;;
5923;SDS011;2987;50.884;14.818;2023-10-19T07:18:00;30.30;;;21.30;;
5923;SDS011;2987;50.884;14.818;2023-10-19T07:20:26;30.90;;;20.97;;
5923;SDS011;2987;50.884;14.818;2023-10-19T07:22:55;28.53;;;21.30;;
5923;SDS011;2987;50.884;14.818;2023-10-19T07:25:22;32.57;;;22.07;;
5923;SDS011;2987;50.884;14.818;2023-10-19T07:27:51;30.13;;;21.17;;
5923;SDS011;2987;50.884;14.818;2023-10-19T07:30:19;29.43;;;21.37;;
5923;SDS011;2987;50.884;14.818;2023-10-19T07:32:47;31.27;;;22.03;;
5923;SDS011;2987;50.884;14.818;2023-10-19T07:35:33;32.60;;;21.13;;
5923;SDS011;2987;50.884;14.818;2023-10-19T07:38:00;30.07;;;21.63;;
5923;SDS011;2987;50.884;14.818;2023-10-19T07:40:27;30.40;;;20.90;;
5923;SDS011;2987;50.884;14.818;2023-10-19T07:42:53;27.43;;;20.80;;
5923;SDS011;2987;50.884;14.818;2023-10-19T07:45:20;30.93;;;21.40;;
5923;SDS011;2987;50.884;14.818;2023-10-19T07:47:47;30.80;;;21.47;;
5923;SDS011;2987;50.884;14.818;2023-10-19T07:50:13;31.43;;;21.13;;
5923;SDS011;2987;50.884;14.818;2023-10-19T07:52:44;29.87;;;21.67;;
5923;SDS011;2987;50.884;14.818;2023-10-19T07:55:16;28.57;;;20.90;;
5923;SDS011;2987;50.884;14.818;2023-10-19T07:57:43;27.63;;;18.97;;
5923;SDS011;2987;50.884;14.818;2023-10-19T08:00:10;28.53;;;21.13;;
5923;SDS011;2987;50.884;14.818;2023-10-19T08:02:40;30.03;;;22.23;;
5923;SDS011;2987;50.884;14.818;2023-10-19T08:05:10;32.57;;;23.10;;
5923;SDS011;2987;50.884;14.818;2023-10-19T08:07:39;41.20;;;26.77;;
5923;SDS011;2987;50.884;14.818;2023-10-19T08:10:08;30.67;;;22.93;;
5923;SDS011;2987;50.884;14.818;2023-10-19T08:12:36;35.30;;;24.60;;
5923;SDS011;2987;50.884;14.818;2023-10-19T08:15:03;30.97;;;22.53;;
5923;SDS011;2987;50.884;14.818;2023-10-19T08:17:32;31.20;;;21.90;;
5923;SDS011;2987;50.884;14.818;2023-10-19T08:19:59;29.57;;;22.50;;
5923;SDS011;2987;50.884;14.818;2023-10-19T08:22:29;32.20;;;23.10;;
5923;SDS011;2987;50.884;14.818;2023-10-19T08:24:56;32.80;;;24.30;;
5923;SDS011;2987;50.884;14.818;2023-10-19T08:27:22;34.87;;;23.70;;
5923;SDS011;2987;50.884;14.818;2023-10-19T08:29:49;33.37;;;24.93;;
5923;SDS011;2987;50.884;14.818;2023-10-19T08:32:15;31.67;;;23.73;;
5923;SDS011;2987;50.884;14.818;2023-10-19T08:34:42;33.70;;;23.07;;
5923;SDS011;2987;50.884;14.818;2023-10-19T08:37:08;35.13;;;23.80;;
5923;SDS011;2987;50.884;14.818;2023-10-19T08:39:33;37.00;;;25.93;;
5923;SDS011;2987;50.884;14.818;2023-10-19T08:42:03;31.67;;;23.60;;
5923;SDS011;2987;50.884;14.818;2023-10-19T08:44:30;34.30;;;24.57;;
5923;SDS011;2987;50.884;14.818;2023-10-19T08:46:56;28.83;;;22.23;;
5923;SDS011;2987;50.884;14.818;2023-10-19T08:49:24;31.10;;;23.10;;
5923;SDS011;2987;50.884;14.818;2023-10-19T08:51:52;36.90;;;24.53;;
5923;SDS011;2987;50.884;14.818;2023-10-19T08:54:20;31.90;;;24.17;;
5923;SDS011;2987;50.884;14.818;2023-10-19T08:56:46;34.67;;;22.73;;
5923;SDS011;2987;50.884;14.818;2023-10-19T08:59:13;34.53;;;23.77;;
5923;SDS011;2987;50.884;14.818;2023-10-19T09:01:41;28.87;;;22.20;;
5923;SDS011;2987;50.884;14.818;2023-10-19T09:04:10;30.20;;;23.07;;
5923;SDS011;2987;50.884;14.818;2023-10-19T09:06:37;33.10;;;22.23;;
5923;SDS011;2987;50.884;14.818;2023-10-19T09:11:53;29.33;;;20.87;;
5923;SDS011;2987;50.884;14.818;2023-10-19T09:14:34;34.37;;;22.50;;
5923;SDS011;2987;50.884;14.818;2023-10-19T09:17:05;31.83;;;21.70;;
5923;SDS011;2987;50.884;14.818;2023-10-19T09:19:46;30.33;;;21.70;;
5923;SDS011;2987;50.884;14.818;2023-10-19T09:22:13;29.70;;;22.80;;
5923;SDS011;2987;50.884;14.818;2023-10-19T09:24:44;33.17;;;22.07;;
5923;SDS011;2987;50.884;14.818;2023-10-19T09:27:11;30.53;;;22.57;;
5923;SDS011;2987;50.884;14.818;2023-10-19T09:29:39;26.83;;;21.03;;
5923;SDS011;2987;50.884;14.818;2023-10-19T09:32:06;32.80;;;22.37;;
5923;SDS011;2987;50.884;14.818;2023-10-19T09:34:33;29.07;;;22.83;;
5923;SDS011;2987;50.884;14.818;2023-10-19T09:37:01;31.87;;;21.83;;
5923;SDS011;2987;50.884;14.818;2023-10-19T09:39:30;31.50;;;22.20;;
5923;SDS011;2987;50.884;14.818;2023-10-19T09:42:00;37.37;;;24.93;;
5923;SDS011;2987;50.884;14.818;2023-10-19T09:44:33;35.50;;;23.27;;
5923;SDS011;2987;50.884;14.818;2023-10-19T09:47:07;32.93;;;23.20;;
5923;SDS011;2987;50.884;14.818;2023-10-19T09:49:39;33.83;;;24.57;;
5923;SDS011;2987;50.884;14.818;2023-10-19T09:54:41;34.50;;;24.47;;
5923;SDS011;2987;50.884;14.818;2023-10-19T09:57:19;35.40;;;24.77;;
5923;SDS011;2987;50.884;14.818;2023-10-19T09:59:58;40.80;;;25.30;;
5923;SDS011;2987;50.884;14.818;2023-10-19T10:02:48;37.30;;;25.83;;
5923;SDS011;2987;50.884;14.818;2023-10-19T10:10:57;35.53;;;25.67;;
5923;SDS011;2987;50.884;14.818;2023-10-19T10:16:06;35.97;;;24.80;;
5923;SDS011;2987;50.884;14.818;2023-10-19T10:18:32;36.20;;;25.43;;
5923;SDS011;2987;50.884;14.818;2023-10-19T10:21:17;33.93;;;24.60;;
5923;SDS011;2987;50.884;14.818;2023-10-19T10:23:47;35.03;;;25.27;;
5923;SDS011;2987;50.884;14.818;2023-10-19T10:26:13;34.87;;;26.20;;
5923;SDS011;2987;50.884;14.818;2023-10-19T10:28:45;37.50;;;25.80;;
5923;SDS011;2987;50.884;14.818;2023-10-19T10:31:13;34.40;;;25.03;;
5923;SDS011;2987;50.884;14.818;2023-10-19T10:33:43;36.50;;;25.47;;
5923;SDS011;2987;50.884;14.818;2023-10-19T10:36:11;34.37;;;24.77;;
5923;SDS011;2987;50.884;14.818;2023-10-19T10:38:39;31.40;;;23.43;;
5923;SDS011;2987;50.884;14.818;2023-10-19T10:41:06;34.03;;;24.80;;
5923;SDS011;2987;50.884;14.818;2023-10-19T10:43:55;30.23;;;23.80;;
5923;SDS011;2987;50.884;14.818;2023-10-19T10:46:23;33.07;;;24.27;;
5923;SDS011;2987;50.884;14.818;2023-10-19T10:48:50;34.77;;;24.10;;
5923;SDS011;2987;50.884;14.818;2023-10-19T10:51:18;29.83;;;24.17;;
5923;SDS011;2987;50.884;14.818;2023-10-19T10:53:46;32.20;;;24.03;;
5923;SDS011;2987;50.884;14.818;2023-10-19T10:56:14;30.37;;;23.00;;
5923;SDS011;2987;50.884;14.818;2023-10-19T10:58:40;30.97;;;22.90;;
5923;SDS011;2987;50.884;14.818;2023-10-19T11:01:07;30.13;;;21.50;;
5923;SDS011;2987;50.884;14.818;2023-10-19T11:03:33;29.20;;;21.90;;
5923;SDS011;2987;50.884;14.818;2023-10-19T11:06:02;26.57;;;21.40;;
5923;SDS011;2987;50.884;14.818;2023-10-19T11:08:30;35.07;;;22.77;;
5923;SDS011;2987;50.884;14.818;2023-10-19T11:11:01;30.23;;;21.87;;
5923;SDS011;2987;50.884;14.818;2023-10-19T11:13:30;26.97;;;21.80;;
5923;SDS011;2987;50.884;14.818;2023-10-19T11:15:59;29.57;;;22.73;;
5923;SDS011;2987;50.884;14.818;2023-10-19T11:18:28;27.50;;;21.77;;
5923;SDS011;2987;50.884;14.818;2023-10-19T11:21:06;30.07;;;22.57;;
5923;SDS011;2987;50.884;14.818;2023-10-19T11:23:35;28.63;;;21.50;;
5923;SDS011;2987;50.884;14.818;2023-10-19T11:26:03;31.97;;;22.00;;
5923;SDS011;2987;50.884;14.818;2023-10-19T11:28:31;28.53;;;21.93;;
5923;SDS011;2987;50.884;14.818;2023-10-19T11:31:10;29.97;;;21.97;;
5923;SDS011;2987;50.884;14.818;2023-10-19T11:33:38;29.67;;;22.27;;
5923;SDS011;2987;50.884;14.818;2023-10-19T11:36:05;29.63;;;21.63;;
5923;SDS011;2987;50.884;14.818;2023-10-19T11:38:31;31.53;;;21.63;;
5923;SDS011;2987;50.884;14.818;2023-10-19T11:40:57;30.53;;;22.77;;
5923;SDS011;2987;50.884;14.818;2023-10-19T11:43:23;33.33;;;22.20;;
5923;SDS011;2987;50.884;14.818;2023-10-19T11:45:49;29.73;;;22.00;;
5923;SDS011;2987;50.884;14.818;2023-10-19T11:48:16;29.33;;;21.00;;
5923;SDS011;2987;50.884;14.818;2023-10-19T11:50:42;27.03;;;21.87;;
5923;SDS011;2987;50.884;14.818;2023-10-19T11:53:08;35.17;;;24.40;;
5923;SDS011;2987;50.884;14.818;2023-10-19T11:55:35;33.07;;;23.50;;
5923;SDS011;2987;50.884;14.818;2023-10-19T11:58:01;30.60;;;23.27;;
5923;SDS011;2987;50.884;14.818;2023-10-19T12:00:27;30.77;;;22.17;;
5923;SDS011;2987;50.884;14.818;2023-10-19T12:02:59;33.53;;;24.47;;
5923;SDS011;2987;50.884;14.818;2023-10-19T12:05:25;32.30;;;23.03;;
5923;SDS011;2987;50.884;14.818;2023-10-19T12:07:51;31.97;;;23.27;;
5923;SDS011;2987;50.884;14.818;2023-10-19T12:10:17;35.20;;;23.70;;
5923;SDS011;2987;50.884;14.818;2023-10-19T12:12:46;30.47;;;22.70;;
5923;SDS011;2987;50.884;14.818;2023-10-19T12:15:12;31.70;;;23.63;;
5923;SDS011;2987;50.884;14.818;2023-10-19T12:17:38;32.90;;;24.23;;
5923;SDS011;2987;50.884;14.818;2023-10-19T12:20:04;29.23;;;23.40;;
5923;SDS011;2987;50.884;14.818;2023-10-19T12:22:32;32.53;;;23.87;;
5923;SDS011;2987;50.884;14.818;2023-10-19T12:25:03;34.13;;;23.73;;
5923;SDS011;2987;50.884;14.818;2023-10-19T12:27:30;34.73;;;24.33;;
5923;SDS011;2987;50.884;14.818;2023-10-19T12:29:57;33.23;;;23.97;;
5923;SDS011;2987;50.884;14.818;2023-10-19T12:32:24;32.63;;;24.50;;
5923;SDS011;2987;50.884;14.818;2023-10-19T12:34:51;37.67;;;24.67;;
5923;SDS011;2987;50.884;14.818;2023-10-19T12:37:23;32.40;;;23.93;;
5923;SDS011;2987;50.884;14.818;2023-10-19T12:39:50;33.17;;;24.50;;
5923;SDS011;2987;50.884;14.818;2023-10-19T12:42:17;34.93;;;25.33;;
5923;SDS011;2987;50.884;14.818;2023-10-19T12:44:43;33.53;;;25.33;;
5923;SDS011;2987;50.884;14.818;2023-10-19T12:47:10;34.90;;;26.33;;
5923;SDS011;2987;50.884;14.818;2023-10-19T12:49:39;32.80;;;24.43;;
5923;SDS011;2987;50.884;14.818;2023-10-19T12:52:06;38.20;;;25.87;;
5923;SDS011;2987;50.884;14.818;2023-10-19T12:54:34;38.23;;;25.37;;
5923;SDS011;2987;50.884;14.818;2023-10-19T12:57:02;35.47;;;25.17;;
5923;SDS011;2987;50.884;14.818;2023-10-19T12:59:29;35.07;;;25.97;;
5923;SDS011;2987;50.884;14.818;2023-10-19T13:01:56;36.90;;;26.93;;
5923;SDS011;2987;50.884;14.818;2023-10-19T13:04:24;37.47;;;26.73;;
5923;SDS011;2987;50.884;14.818;2023-10-19T13:06:51;34.30;;;27.23;;
5923;SDS011;2987;50.884;14.818;2023-10-19T13:09:17;37.60;;;27.77;;
5923;SDS011;2987;50.884;14.818;2023-10-19T13:11:57;37.23;;;27.63;;
5923;SDS011;2987;50.884;14.818;2023-10-19T13:14:24;36.30;;;27.13;;
5923;SDS011;2987;50.884;14.818;2023-10-19T13:16:51;37.77;;;28.13;;
5923;SDS011;2987;50.884;14.818;2023-10-19T13:19:18;36.93;;;27.03;;
5923;SDS011;2987;50.884;14.818;2023-10-19T13:21:50;39.77;;;28.37;;
5923;SDS011;2987;50.884;14.818;2023-10-19T13:24:17;41.40;;;28.53;;
5923;SDS011;2987;50.884;14.818;2023-10-19T13:26:46;42.17;;;29.37;;
5923;SDS011;2987;50.884;14.818;2023-10-19T13:29:14;39.93;;;28.73;;
5923;SDS011;2987;50.884;14.818;2023-10-19T13:31:42;41.27;;;29.50;;
5923;SDS011;2987;50.884;14.818;2023-10-19T13:34:16;38.70;;;27.70;;
5923;SDS011;2987;50.884;14.818;2023-10-19T13:36:43;44.60;;;29.73;;
5923;SDS011;2987;50.884;14.818;2023-10-19T13:39:12;39.60;;;28.60;;
5923;SDS011;2987;50.884;14.818;2023-10-19T13:41:42;39.93;;;28.57;;
5923;SDS011;2987;50.884;14.818;2023-10-19T13:44:09;41.23;;;29.50;;
5923;SDS011;2987;50.884;14.818;2023-10-19T13:46:37;41.50;;;29.40;;
5923;SDS011;2987;50.884;14.818;2023-10-19T13:49:03;38.67;;;29.07;;
5923;SDS011;2987;50.884;14.818;2023-10-19T13:51:31;37.10;;;28.77;;
5923;SDS011;2987;50.884;14.818;2023-10-19T13:53:58;38.03;;;27.70;;
5923;SDS011;2987;50.884;14.818;2023-10-19T13:56:24;40.30;;;28.97;;
5923;SDS011;2987;50.884;14.818;2023-10-19T13:58:51;43.80;;;31.40;;
5923;SDS011;2987;50.884;14.818;2023-10-19T14:01:18;40.63;;;30.43;;
5923;SDS011;2987;50.884;14.818;2023-10-19T14:03:46;39.10;;;31.20;;
5923;SDS011;2987;50.884;14.818;2023-10-19T14:06:13;42.77;;;31.47;;
5923;SDS011;2987;50.884;14.818;2023-10-19T14:08:40;42.10;;;30.73;;
5923;SDS011;2987;50.884;14.818;2023-10-19T14:11:06;40.13;;;28.80;;
5923;SDS011;2987;50.884;14.818;2023-10-19T14:13:33;43.00;;;30.10;;
5923;SDS011;2987;50.884;14.818;2023-10-19T14:16:04;39.00;;;29.47;;
5923;SDS011;2987;50.884;14.818;2023-10-19T14:18:33;42.90;;;30.07;;
5923;SDS011;2987;50.884;14.818;2023-10-19T14:20:59;37.47;;;30.57;;
5923;SDS011;2987;50.884;14.818;2023-10-19T14:23:26;39.20;;;29.43;;
5923;SDS011;2987;50.884;14.818;2023-10-19T14:25:53;40.93;;;30.73;;
5923;SDS011;2987;50.884;14.818;2023-10-19T14:28:19;42.33;;;30.53;;
5923;SDS011;2987;50.884;14.818;2023-10-19T14:30:45;45.93;;;30.67;;
5923;SDS011;2987;50.884;14.818;2023-10-19T14:33:11;40.40;;;31.77;;
5923;SDS011;2987;50.884;14.818;2023-10-19T14:38:07;41.10;;;31.10;;
5923;SDS011;2987;50.884;14.818;2023-10-19T14:40:34;38.37;;;29.57;;
5923;SDS011;2987;50.884;14.818;2023-10-19T14:43:01;40.30;;;31.03;;
5923;SDS011;2987;50.884;14.818;2023-10-19T14:45:27;47.40;;;31.80;;
5923;SDS011;2987;50.884;14.818;2023-10-19T14:47:55;41.47;;;32.17;;
5923;SDS011;2987;50.884;14.818;2023-10-19T14:50:25;43.33;;;32.13;;
5923;SDS011;2987;50.884;14.818;2023-10-19T14:52:54;44.27;;;32.30;;
5923;SDS011;2987;50.884;14.818;2023-10-19T14:55:21;43.93;;;33.50;;
5923;SDS011;2987;50.884;14.818;2023-10-19T14:57:48;46.37;;;32.33;;
5923;SDS011;2987;50.884;14.818;2023-10-19T15:00:20;42.93;;;33.33;;
5923;SDS011;2987;50.884;14.818;2023-10-19T15:02:52;45.37;;;32.20;;
5923;SDS011;2987;50.884;14.818;2023-10-19T15:05:22;46.40;;;33.37;;
5923;SDS011;2987;50.884;14.818;2023-10-19T15:07:50;48.40;;;33.87;;
5923;SDS011;2987;50.884;14.818;2023-10-19T15:10:18;45.03;;;34.37;;